Time;durP1;ratioP1;P1;durP2;ratioP2;P2;SDS_P1;SDS_P2;PMS_P1;PMS_P2;Temp;Humidity;BMP_temperature;BMP_pressure;BME280_temperature;BME280_humidity;BME280_pressure;Samples;Min_cycle;Max_cycle;Signal;HPM_P1;HPM_P2
2021/01/29 00:02:06;;;;;;;323.67;179.93;;;128.10;2022.40;;;;;;5031102;28;20036;-53
2021/01/29 00:04:32;;;;;;;444.48;262.52;;;128.30;2048.00;;;;;;5031619;28;20040;-59
2021/01/29 00:06:57;;;;;;;384.88;216.68;;;128.50;2048.00;;;;;;5031234;28;20029;-56
2021/01/29 00:09:23;;;;;;;237.40;149.90;;;128.60;2073.60;;;;;;5030834;28;20035;-55
2021/01/29 00:11:49;;;;;;;229.50;144.30;;;128.20;2073.60;;;;;;5031165;28;20033;-53
2021/01/29 00:14:15;;;;;;;239.55;145.82;;;128.10;2073.60;;;;;;5030912;28;20105;-55
2021/01/29 00:16:41;;;;;;;269.35;161.82;;;128.10;2073.60;;;;;;5031076;28;20025;-54
2021/01/29 00:19:07;;;;;;;328.80;192.30;;;128.10;2099.20;;;;;;5030864;28;20026;-53
2021/01/29 00:21:33;;;;;;;292.50;178.68;;;103.30;2099.20;;;;;;5030986;28;20029;-54
2021/01/29 00:23:58;;;;;;;585.05;347.05;;;128.00;2099.20;;;;;;5030402;28;20498;-52
2021/01/29 00:26:24;;;;;;;261.83;158.32;;;128.30;2124.80;;;;;;5030581;28;20022;-55
2021/01/29 00:28:50;;;;;;;252.88;149.55;;;128.30;2099.20;;;;;;5030739;28;20033;-52
2021/01/29 00:31:16;;;;;;;255.73;151.05;;;128.20;2099.20;;;;;;5030664;28;20104;-55
2021/01/29 00:33:41;;;;;;;241.13;141.57;;;128.10;2099.20;;;;;;5029643;28;20076;-56
2021/01/29 00:36:07;;;;;;;222.25;140.20;;;128.30;2073.60;;;;;;5030816;28;20064;-53
2021/01/29 00:38:33;;;;;;;250.55;151.23;;;128.40;2073.60;;;;;;5030749;28;20075;-56
2021/01/29 00:40:59;;;;;;;222.32;138.38;;;128.60;2022.40;;;;;;5030729;28;20472;-51
2021/01/29 00:43:24;;;;;;;220.02;138.70;;;128.70;2022.40;;;;;;5030551;28;20386;-52
2021/01/29 00:45:50;;;;;;;233.15;140.52;;;128.70;2022.40;;;;;;5030585;28;20022;-54
2021/01/29 00:48:16;;;;;;;239.60;146.82;;;128.70;2022.40;;;;;;5030496;28;20033;-54
2021/01/29 00:50:42;;;;;;;302.73;176.05;;;128.50;2048.00;;;;;;5030557;28;20741;-53
2021/01/29 00:53:09;;;;;;;301.00;173.82;;;128.60;2048.00;;;;;;5030440;28;20041;-54
2021/01/29 00:55:35;;;;;;;255.45;151.85;;;128.60;2022.40;;;;;;5030211;28;20029;-52
2021/01/29 00:58:01;;;;;;;291.27;171.40;;;128.70;2022.40;;;;;;5030594;28;20060;-55
2021/01/29 01:00:27;;;;;;;286.15;163.43;;;128.70;2048.00;;;;;;5030162;28;20087;-55
2021/01/29 01:02:52;;;;;;;277.48;162.38;;;128.60;2048.00;;;;;;5030020;28;20038;-52
2021/01/29 01:05:21;;;;;;;372.20;205.32;;;128.60;2073.60;;;;;;5030269;28;20029;-52
2021/01/29 01:07:47;;;;;;;250.05;145.48;;;128.40;2099.20;;;;;;5030246;28;20037;-54
2021/01/29 01:10:14;;;;;;;193.05;116.15;;;128.30;2099.20;;;;;;5030123;28;20028;-52
2021/01/29 01:12:40;;;;;;;241.68;130.95;;;128.40;2099.20;;;;;;5030221;28;20036;-53
2021/01/29 01:15:18;;;;;;;186.15;112.65;;;128.50;2073.60;;;;;;5030185;28;20022;-50
2021/01/29 01:17:45;;;;;;;453.75;227.52;;;128.60;2073.60;;;;;;5030225;28;20108;-52
2021/01/29 01:20:14;;;;;;;396.77;215.55;;;128.70;2048.00;;;;;;5030276;28;20029;-51
2021/01/29 01:22:40;;;;;;;155.45;100.22;;;128.70;2048.00;;;;;;5029986;28;20116;-54
2021/01/29 01:25:07;;;;;;;199.13;115.70;;;128.80;2048.00;;;;;;5029896;28;20117;-51
2021/01/29 01:27:32;;;;;;;173.35;106.20;;;128.80;2048.00;;;;;;5029976;28;20033;-52
2021/01/29 01:29:58;;;;;;;198.88;115.65;;;128.40;2099.20;;;;;;5030060;28;20095;-50
2021/01/29 01:32:24;;;;;;;243.77;128.77;;;128.20;2150.40;;;;;;5029660;28;20025;-58
2021/01/29 01:34:50;;;;;;;211.68;124.85;;;103.30;2150.40;;;;;;5031259;28;20446;-58
2021/01/29 01:37:15;;;;;;;289.38;174.20;;;128.30;2124.80;;;;;;5034088;28;20017;-55
2021/01/29 01:39:41;;;;;;;260.95;149.05;;;128.40;2124.80;;;;;;5033967;28;20483;-50
2021/01/29 01:42:07;;;;;;;267.98;153.02;;;128.40;2124.80;;;;;;5033987;28;20025;-50
2021/01/29 01:44:50;;;;;;;157.52;87.97;;;128.60;2099.20;;;;;;5033845;28;20025;-53
2021/01/29 01:47:33;;;;;;;190.45;122.20;;;128.70;2124.80;;;;;;5033755;28;20037;-50
2021/01/29 01:50:11;;;;;;;277.30;176.10;;;128.10;2176.00;;;;;;5033998;28;20126;-51
2021/01/29 01:52:38;;;;;;;232.70;141.85;;;103.30;2176.00;;;;;;5035694;28;20037;-51
2021/01/29 01:55:19;;;;;;;230.00;141.30;;;128.20;2176.00;;;;;;5042093;28;20092;-53
2021/01/29 01:57:48;;;;;;;192.60;118.25;;;128.40;2150.40;;;;;;5041891;28;20488;-49
2021/01/29 02:00:27;;;;;;;187.30;113.90;;;128.30;2176.00;;;;;;5043062;28;20025;-50
2021/01/29 02:03:03;;;;;;;230.45;141.70;;;128.40;2176.00;;;;;;5042502;28;20033;-49
2021/01/29 02:05:36;;;;;;;224.20;142.80;;;128.40;2150.40;;;;;;5042236;28;20471;-49
2021/01/29 02:08:05;;;;;;;235.75;145.40;;;128.50;2150.40;;;;;;5042091;28;20037;-50
2021/01/29 02:10:32;;;;;;;246.93;156.65;;;128.60;2124.80;;;;;;5042302;28;20480;-51
2021/01/29 02:13:00;;;;;;;248.63;157.80;;;128.60;2150.40;;;;;;5042404;28;20039;-51
2021/01/29 02:15:32;;;;;;;307.52;191.57;;;128.70;2124.80;;;;;;5043764;28;20025;-51
2021/01/29 02:18:27;;;;;;;206.85;131.52;;;128.50;2150.40;;;;;;5043101;28;20083;-53
2021/01/29 02:21:12;;;;;;;167.63;107.07;;;128.40;2176.00;;;;;;5042466;28;20032;-52
2021/01/29 02:24:01;;;;;;;153.00;94.85;;;128.70;2124.80;;;;;;5043218;28;20029;-55
2021/01/29 02:27:01;;;;;;;200.85;124.15;;;128.60;2124.80;;;;;;5041038;28;20025;-50
2021/01/29 02:29:53;;;;;;;236.82;141.07;;;128.40;2176.00;;;;;;4943622;29;20039;-50
2021/01/29 02:32:53;;;;;;;191.95;114.50;;;128.30;2201.60;;;;;;4928618;29;20044;-50
2021/01/29 02:35:49;;;;;;;239.55;144.98;;;128.30;2201.60;;;;;;4943149;29;20044;-51
2021/01/29 02:38:39;;;;;;;192.10;117.63;;;128.60;2150.40;;;;;;4940826;29;20391;-49
2021/01/29 02:41:22;;;;;;;223.45;138.00;;;128.70;2124.80;;;;;;4933303;29;20110;-57
2021/01/29 02:44:07;;;;;;;224.32;129.70;;;128.90;2124.80;;;;;;4933540;29;20126;-51
2021/01/29 02:47:01;;;;;;;168.93;101.18;;;153.70;2099.20;;;;;;4932739;29;20452;-57
2021/01/29 02:49:47;;;;;;;136.77;87.22;;;153.60;2099.20;;;;;;4933252;29;20066;-55
2021/01/29 02:52:39;;;;;;;184.13;104.68;;;153.80;2048.00;;;;;;4933066;29;20036;-52
2021/01/29 02:55:19;;;;;;;177.70;108.78;;;153.80;2048.00;;;;;;4933150;29;20482;-61
2021/01/29 02:57:57;;;;;;;193.93;116.32;;;153.80;2073.60;;;;;;4932950;29;20050;-61
2021/01/29 03:00:32;;;;;;;122.82;78.10;;;153.70;2073.60;;;;;;4933101;29;20051;-52
2021/01/29 03:03:15;;;;;;;116.32;69.47;;;153.60;2073.60;;;;;;4938447;29;20445;-52
2021/01/29 03:05:47;;;;;;;;;;;153.70;2073.60;;;;;;4989239;28;20392;-51
2021/01/29 03:08:24;;;;;;;103.97;65.68;;;153.80;2073.60;;;;;;5032119;28;19913;-52
2021/01/29 03:11:14;;;;;;;90.85;59.13;;;153.80;2073.60;;;;;;5032366;28;20044;-56
2021/01/29 03:14:08;;;;;;;113.70;68.63;;;153.70;2073.60;;;;;;5032603;28;20113;-51
2021/01/29 03:16:42;;;;;;;;;;;153.70;2073.60;;;;;;5032739;28;20049;-52
2021/01/29 03:19:14;;;;;;;76.88;47.40;;;153.70;2073.60;;;;;;5031263;28;20282;-59
2021/01/29 03:21:53;;;;;;;74.13;44.63;;;153.90;2048.00;;;;;;5032456;28;20033;-61
2021/01/29 03:24:37;;;;;;;65.90;43.83;;;153.90;2048.00;;;;;;5032108;28;20018;-51
2021/01/29 03:27:25;;;;;;;106.30;67.82;;;153.80;2073.60;;;;;;5032017;28;20034;-57
2021/01/29 03:30:01;;;;;;;76.03;48.58;;;153.80;2073.60;;;;;;5031969;28;20076;-52
2021/01/29 03:32:28;;;;;;;81.53;59.55;;;153.90;2073.60;;;;;;5031567;28;20492;-54
2021/01/29 03:35:12;;;;;;;78.60;51.80;;;153.90;2073.60;;;;;;5031733;28;20455;-52
2021/01/29 03:37:48;;;;;;;89.40;58.42;;;153.90;2073.60;;;;;;5031836;28;20112;-53
2021/01/29 03:40:15;;;;;;;111.65;66.97;;;153.90;2048.00;;;;;;5031529;28;20483;-54
2021/01/29 03:43:24;;;;;;;109.53;64.95;;;153.80;2073.60;;;;;;5032052;28;20029;-52
2021/01/29 03:45:58;;;;;;;85.57;56.45;;;154.10;2022.40;;;;;;5029667;28;20025;-52
2021/01/29 03:48:38;;;;;;;101.35;65.97;;;154.00;2048.00;;;;;;5029156;28;20038;-58
2021/01/29 03:51:28;;;;;;;101.68;65.45;;;154.00;2073.60;;;;;;5029386;28;20524;-59
2021/01/29 03:54:07;;;;;;;133.02;81.75;;;154.10;2048.00;;;;;;5029157;28;20084;-58
2021/01/29 03:56:52;;;;;;;116.53;77.60;;;153.90;2048.00;;;;;;5029254;28;20452;-58
2021/01/29 03:59:32;;;;;;;177.32;105.55;;;154.10;2048.00;;;;;;5028916;28;20052;-55
2021/01/29 04:02:10;;;;;;;141.40;82.15;;;154.00;2048.00;;;;;;5029202;28;20037;-60
2021/01/29 04:05:02;;;;;;;174.05;96.10;;;154.00;2048.00;;;;;;5029209;28;20030;-52
2021/01/29 04:07:37;;;;;;;226.20;121.97;;;154.10;2048.00;;;;;;5028968;28;20045;-58
2021/01/29 04:10:13;;;;;;;130.98;74.70;;;154.10;2022.40;;;;;;5028864;28;20399;-60
2021/01/29 04:13:03;;;;;;;135.80;81.32;;;154.30;2022.40;;;;;;5029180;28;20083;-53
2021/01/29 04:15:31;;;;;;;183.23;107.75;;;154.20;2022.40;;;;;;4931872;29;20079;-56
2021/01/29 04:18:18;;;;;;;58.78;38.45;;;153.90;2073.60;;;;;;4931582;29;20164;-58
2021/01/29 04:20:55;;;;;;;74.78;44.00;;;153.80;2099.20;;;;;;4949522;29;20035;-60
2021/01/29 04:23:36;;;;;;;170.90;93.85;;;154.00;2073.60;;;;;;4950958;29;20033;-59
2021/01/29 04:26:33;;;;;;;127.05;72.40;;;154.10;2048.00;;;;;;4950749;29;20155;-52
2021/01/29 04:29:13;;;;;;;109.55;58.95;;;154.20;2048.00;;;;;;4950278;29;20134;-60
2021/01/29 04:31:40;;;;;;;78.43;48.17;;;154.40;2022.40;;;;;;4950633;28;20083;-52
2021/01/29 04:34:17;;;;;;;39.22;24.70;;;154.40;2022.40;;;;;;4950458;28;20062;-57
2021/01/29 04:36:46;;;;;;;53.33;35.83;;;179.20;1945.60;;;;;;4950417;28;20453;-51
2021/01/29 04:39:15;;;;;;;166.65;87.63;;;179.20;1996.80;;;;;;4950503;29;20042;-52
2021/01/29 04:42:03;;;;;;;209.90;136.18;;;154.30;2022.40;;;;;;4950719;29;20023;-52
2021/01/29 04:44:48;;;;;;;116.68;74.18;;;128.90;2201.60;;;;;;4950472;29;20031;-57
2021/01/29 04:47:25;;;;;;;97.10;61.25;;;128.50;2227.20;;;;;;4950162;29;20402;-53
2021/01/29 04:49:53;;;;;;;99.03;60.75;;;128.50;2227.20;;;;;;4950587;29;20028;-58
2021/01/29 04:52:37;;;;;;;97.43;62.95;;;128.90;2150.40;;;;;;4984305;28;20090;-60
2021/01/29 04:55:41;;;;;;;101.03;60.90;;;153.60;2150.40;;;;;;5030273;28;20064;-51
2021/01/29 04:58:16;;;;;;;134.00;79.50;;;153.60;2150.40;;;;;;5030443;28;20052;-59
2021/01/29 05:00:59;;;;;;;114.03;69.82;;;153.80;2124.80;;;;;;5030401;28;20621;-55
2021/01/29 05:04:01;;;;;;;117.03;67.45;;;153.80;2124.80;;;;;;5030149;28;20117;-54
2021/01/29 05:06:50;;;;;;;126.32;72.07;;;153.90;2099.20;;;;;;5030267;28;20104;-55
2021/01/29 05:09:28;;;;;;;101.78;62.53;;;153.90;2099.20;;;;;;5030020;28;20041;-54
2021/01/29 05:12:22;;;;;;;81.72;51.47;;;153.80;2124.80;;;;;;5030077;28;20030;-52
2021/01/29 05:15:11;;;;;;;78.55;51.50;;;153.70;2150.40;;;;;;5030049;28;20542;-55
2021/01/29 05:18:01;;;;;;;120.70;70.63;;;153.70;2150.40;;;;;;5030086;28;20095;-58
2021/01/29 05:20:38;;;;;;;99.72;58.70;;;153.70;2150.40;;;;;;5029981;28;20056;-58
2021/01/29 05:23:47;;;;;;;96.75;60.15;;;153.90;2124.80;;;;;;5030004;28;20044;-53
2021/01/29 05:26:43;;;;;;;113.63;69.85;;;154.00;2124.80;;;;;;4968458;28;20042;-52
2021/01/29 05:29:20;;;;;;;189.95;102.32;;;154.00;2099.20;;;;;;4969060;28;20039;-53
2021/01/29 05:31:52;;;;;;;200.75;113.53;;;154.00;2099.20;;;;;;4968793;28;20038;-55
2021/01/29 05:34:24;;;;;;;107.60;66.13;;;153.80;2124.80;;;;;;4969034;28;20498;-52
2021/01/29 05:37:12;;;;;;;177.07;102.60;;;154.00;2099.20;;;;;;4969140;28;20501;-56
2021/01/29 05:39:52;;;;;;;220.10;118.45;;;154.10;2073.60;;;;;;4968425;28;20054;-50
2021/01/29 05:42:28;;;;;;;123.32;75.65;;;154.10;2048.00;;;;;;4983296;28;20041;-53
2021/01/29 05:45:23;;;;;;;123.53;75.13;;;154.20;2022.40;;;;;;4978023;28;20042;-52
2021/01/29 05:48:08;;;;;;;141.50;98.53;;;154.10;2048.00;;;;;;4975482;28;20400;-55
2021/01/29 05:50:43;;;;;;;124.38;75.63;;;153.90;2099.20;;;;;;4975777;28;20070;-54
2021/01/29 05:53:37;;;;;;;127.75;79.13;;;154.00;2099.20;;;;;;4976660;28;20358;-51
2021/01/29 05:56:11;;;;;;;130.38;72.15;;;154.10;2073.60;;;;;;4965390;28;20557;-52
2021/01/29 05:58:37;;;;;;;155.07;85.05;;;154.00;2073.60;;;;;;4967301;28;20562;-52
2021/01/29 06:01:05;;;;;;;192.70;102.07;;;154.20;2048.00;;;;;;4967557;28;20051;-53
2021/01/29 06:03:39;;;;;;;167.63;92.90;;;154.40;2022.40;;;;;;5004766;28;20076;-50
2021/01/29 06:06:36;;;;;;;181.35;99.30;;;154.30;2022.40;;;;;;5027397;28;20037;-51
2021/01/29 06:09:13;;;;;;;191.27;112.90;;;154.30;2022.40;;;;;;5027476;28;20041;-53
2021/01/29 06:11:46;;;;;;;125.15;71.43;;;154.20;2022.40;;;;;;5027361;28;20152;-50
2021/01/29 06:14:43;;;;;;;147.90;82.88;;;154.20;2022.40;;;;;;5027639;28;20109;-52
2021/01/29 06:17:46;;;;;;;199.18;132.13;;;154.10;2048.00;;;;;;5027410;28;20025;-54
2021/01/29 06:20:42;;;;;;;119.15;75.40;;;153.90;2099.20;;;;;;5027521;28;20030;-53
2021/01/29 06:23:13;;;;;;;206.38;129.63;;;153.80;2099.20;;;;;;5031008;28;20068;-51
2021/01/29 06:26:03;;;;;;;209.38;127.78;;;153.90;2099.20;;;;;;5030821;28;20067;-52
2021/01/29 06:28:46;;;;;;;176.95;114.60;;;154.00;2073.60;;;;;;5030763;28;20092;-51
2021/01/29 06:31:15;;;;;;;;;;;154.10;2048.00;;;;;;5031377;28;20112;-50
2021/01/29 06:34:02;;;;;;;597.72;379.40;;;154.00;2073.60;;;;;;5032386;28;19975;-51
2021/01/29 06:36:39;;;;;;;171.15;104.20;;;153.90;2099.20;;;;;;5032773;28;20471;-51
2021/01/29 06:39:21;;;;;;;237.48;137.43;;;153.90;2073.60;;;;;;5033038;28;20382;-51
2021/01/29 06:42:14;;;;;;;257.40;156.15;;;153.90;2073.60;;;;;;5032718;28;20100;-50
2021/01/29 06:44:59;;;;;;;227.68;143.13;;;153.90;2073.60;;;;;;5032952;28;20033;-50
2021/01/29 06:47:54;;;;;;;182.73;116.80;;;154.10;2048.00;;;;;;5032733;28;20048;-50
2021/01/29 06:50:34;;;;;;;213.25;130.40;;;154.10;2048.00;;;;;;5032662;28;20037;-50
2021/01/29 06:53:18;;;;;;;171.65;108.20;;;154.20;2022.40;;;;;;5032798;28;20026;-50
2021/01/29 06:55:59;;;;;;;233.82;157.45;;;154.30;2022.40;;;;;;5032579;28;20079;-50
2021/01/29 06:58:39;;;;;;;181.90;115.32;;;154.40;2022.40;;;;;;5032436;28;20025;-50
2021/01/29 07:01:42;;;;;;;92.22;57.03;;;154.40;1996.80;;;;;;5037779;28;20025;-51
2021/01/29 07:04:23;;;;;;;100.68;60.88;;;179.20;1971.20;;;;;;5041637;28;20033;-51
2021/01/29 07:07:20;;;;;;;271.02;168.57;;;179.30;1945.60;;;;;;5031519;28;20090;-50
2021/01/29 07:10:10;;;;;;;237.27;155.27;;;154.50;1996.80;;;;;;5038567;28;20438;-52
2021/01/29 07:13:28;;;;;;;158.15;95.32;;;179.30;1971.20;;;;;;5032270;28;20030;-51
2021/01/29 07:16:30;;;;;;;107.15;67.32;;;179.50;1945.60;;;;;;5034305;28;20044;-52
2021/01/29 07:19:07;;;;;;;209.60;123.68;;;179.60;1945.60;;;;;;5033213;28;20025;-50
2021/01/29 07:21:48;;;;;;;542.05;354.45;;;179.60;1945.60;;;;;;5036760;28;20033;-51
2021/01/29 07:24:35;;;;;;;520.80;331.58;;;179.60;1945.60;;;;;;5034557;28;20041;-52
2021/01/29 07:27:24;;;;;;;570.22;379.50;;;179.60;1945.60;;;;;;5040827;28;20079;-51
2021/01/29 07:29:58;;;;;;;497.80;315.85;;;179.80;1945.60;;;;;;5037600;28;20043;-54
2021/01/29 07:32:44;;;;;;;443.83;279.95;;;179.90;1920.00;;;;;;5030869;28;20032;-54
2021/01/29 07:35:14;;;;;;;422.65;277.85;;;180.00;1920.00;;;;;;5032549;28;20132;-54
2021/01/29 07:38:16;;;;;;;272.92;191.85;;;204.90;1894.40;;;;;;5030763;28;20029;-53
2021/01/29 07:41:16;;;;;;;381.52;252.68;;;205.40;1817.60;;;;;;5034233;28;20140;-57
2021/01/29 07:43:59;;;;;;;331.73;225.38;;;205.70;1792.00;;;;;;4974799;28;20134;-53
2021/01/29 07:46:25;;;;;;;;;;;230.80;1715.20;;;;;;4965016;28;20031;-56
2021/01/29 07:49:28;;;;;;;492.42;329.95;;;230.70;1740.80;;;;;;4960104;28;19925;-53
2021/01/29 07:52:23;;;;;;;321.30;211.02;;;230.40;1792.00;;;;;;4959588;28;20110;-57
2021/01/29 07:54:54;;;;;;;501.75;363.33;;;230.60;1740.80;;;;;;4959419;28;20074;-54
2021/01/29 07:57:47;;;;;;;477.33;332.52;;;230.50;1792.00;;;;;;4957525;28;20031;-56
2021/01/29 08:00:31;;;;;;;476.55;352.77;;;230.70;1766.40;;;;;;4961118;28;20533;-53
2021/01/29 08:03:26;;;;;;;493.17;374.85;;;231.30;1715.20;;;;;;4953449;28;20568;-53
2021/01/29 08:05:57;;;;;;;477.20;382.90;;;282.10;1587.20;;;;;;4951232;29;20048;-56
2021/01/29 08:08:27;;;;;;;484.02;401.20;;;308.10;1484.80;;;;;;4950962;29;20562;-54
2021/01/29 08:10:56;;;;;;;453.48;368.35;;;333.00;1459.20;;;;;;4950626;29;20029;-54
2021/01/29 08:13:43;;;;;;;419.77;352.65;;;333.10;1459.20;;;;;;4950908;28;20126;-53
2021/01/29 08:16:38;;;;;;;403.77;336.50;;;333.70;1408.00;;;;;;4951011;29;20055;-59
2021/01/29 08:19:12;;;;;;;394.48;337.35;;;384.10;1280.00;;;;;;4950887;29;20545;-55
2021/01/29 08:22:11;;;;;;;432.48;362.65;;;358.80;1305.60;;;;;;5022070;28;20188;-56
2021/01/29 08:24:55;;;;;;;426.48;353.40;;;308.10;1459.20;;;;;;5030795;28;20395;-55
2021/01/29 08:27:40;;;;;;;415.42;331.85;;;307.20;1536.00;;;;;;5030769;28;20468;-60
2021/01/29 08:30:41;;;;;;;403.88;317.40;;;307.30;1536.00;;;;;;5030764;28;20025;-58
2021/01/29 08:33:38;;;;;;;411.48;326.08;;;282.30;1536.00;;;;;;5025547;28;20111;-58
2021/01/29 08:36:24;;;;;;;474.88;379.75;;;282.00;1587.20;;;;;;5047825;28;20056;-52
2021/01/29 08:39:22;;;;;;;552.92;440.13;;;282.20;1561.60;;;;;;5049956;28;20021;-52
2021/01/29 08:41:58;;;;;;;506.05;397.10;;;282.10;1587.20;;;;;;5050626;28;20056;-54
2021/01/29 08:44:46;;;;;;;457.65;349.65;;;282.20;1561.60;;;;;;5049852;28;20045;-53
2021/01/29 08:47:22;;;;;;;507.67;412.73;;;282.40;1561.60;;;;;;5050474;28;20032;-58
2021/01/29 08:50:22;;;;;;;455.05;367.15;;;307.60;1561.60;;;;;;5050583;28;20033;-52
2021/01/29 08:53:06;;;;;;;396.15;320.85;;;307.80;1484.80;;;;;;5050339;28;20037;-54
2021/01/29 08:56:06;;;;;;;265.17;208.70;;;307.60;1510.40;;;;;;5050371;28;20029;-55
2021/01/29 08:58:37;;;;;;;285.23;219.75;;;307.30;1510.40;;;;;;5050472;28;20024;-56
2021/01/29 09:01:14;;;;;;;310.40;243.25;;;332.80;1433.60;;;;;;5050368;28;20029;-58
2021/01/29 09:03:51;;;;;;;353.95;275.83;;;308.00;1484.80;;;;;;5050269;28;20033;-59
2021/01/29 09:06:25;;;;;;;282.35;227.20;;;333.30;1433.60;;;;;;5050256;28;20032;-54
2021/01/29 09:09:04;;;;;;;290.58;240.82;;;359.10;1305.60;;;;;;5050168;28;20120;-53
2021/01/29 09:11:49;;;;;;;238.60;196.73;;;384.00;1280.00;;;;;;5050120;28;20033;-56
2021/01/29 09:14:21;;;;;;;218.02;191.40;;;409.60;1228.80;;;;;;5049906;28;20024;-55
2021/01/29 09:16:49;;;;;;;205.98;169.85;;;410.50;1126.40;;;;;;5049824;28;20071;-56
2021/01/29 09:19:19;;;;;;;225.50;200.55;;;435.30;1100.80;;;;;;5050009;28;20037;-53
2021/01/29 09:21:53;;;;;;;262.55;233.32;;;435.20;1126.40;;;;;;5049846;28;20025;-60
2021/01/29 09:24:46;;;;;;;256.70;220.48;;;409.90;1228.80;;;;;;5050021;28;20033;-59
2021/01/29 09:27:39;;;;;;;241.48;214.82;;;460.80;1100.80;;;;;;5050119;28;20029;-54
2021/01/29 09:30:33;;;;;;;222.23;197.88;;;435.80;1126.40;;;;;;5049914;28;20032;-53
2021/01/29 09:33:22;;;;;;;213.98;191.10;;;435.60;1126.40;;;;;;5047424;28;20444;-54
2021/01/29 09:35:53;;;;;;;213.45;190.52;;;435.70;1100.80;;;;;;5047742;28;20045;-55
2021/01/29 09:38:30;;;;;;;267.20;237.23;;;435.60;1100.80;;;;;;5047701;28;20041;-54
2021/01/29 09:41:02;;;;;;;273.77;243.70;;;436.10;1100.80;;;;;;5045668;28;20040;-55
2021/01/29 09:44:01;;;;;;;232.65;206.95;;;435.60;1152.00;;;;;;5035255;28;20045;-59
2021/01/29 09:46:30;;;;;;;224.70;200.05;;;410.30;1177.60;;;;;;5040119;28;20387;-53
2021/01/29 09:49:22;;;;;;;226.07;201.65;;;384.70;1254.40;;;;;;5047287;28;20144;-58
2021/01/29 09:51:59;;;;;;;205.68;183.50;;;384.60;1254.40;;;;;;4968894;28;20097;-55
2021/01/29 09:54:42;;;;;;;201.73;179.85;;;384.50;1280.00;;;;;;4968184;28;20045;-56
2021/01/29 09:57:22;;;;;;;230.95;203.38;;;384.70;1280.00;;;;;;4969873;28;20034;-56
2021/01/29 09:59:57;;;;;;;254.30;217.05;;;384.50;1305.60;;;;;;4970804;28;20054;-59
2021/01/29 10:03:07;;;;;;;224.75;194.10;;;384.70;1280.00;;;;;;4969732;28;20035;-54
2021/01/29 10:05:37;;;;;;;220.80;195.52;;;410.20;1228.80;;;;;;4969172;28;20043;-54
2021/01/29 10:08:09;;;;;;;209.80;187.50;;;435.30;1203.20;;;;;;4963168;28;20042;-53
2021/01/29 10:10:58;;;;;;;209.07;187.43;;;435.60;1177.60;;;;;;4960991;28;20114;-59
2021/01/29 10:13:45;;;;;;;212.60;189.80;;;435.80;1152.00;;;;;;4963855;28;20357;-54
2021/01/29 10:16:38;;;;;;;227.15;203.32;;;461.20;1126.40;;;;;;4963332;28;20054;-58
2021/01/29 10:19:30;;;;;;;240.55;214.57;;;486.40;1075.20;;;;;;4952864;29;20046;-57
2021/01/29 10:21:58;;;;;;;190.23;155.20;;;486.40;1049.60;;;;;;4959806;28;20056;-54
2021/01/29 10:24:45;;;;;;;164.55;125.60;;;461.40;1024.00;;;;;;4960243;28;20498;-57
2021/01/29 10:27:13;;;;;;;72.53;55.08;;;461.20;972.80;;;;;;4952700;29;20034;-55
2021/01/29 10:29:45;;;;;;;69.70;52.88;;;436.10;972.80;;;;;;5021471;28;20037;-55
2021/01/29 10:32:25;;;;;;;65.95;52.60;;;435.50;998.40;;;;;;5032932;28;20018;-54
2021/01/29 10:34:57;;;;;;;43.92;35.85;;;435.20;1024.00;;;;;;5032938;28;20053;-55
2021/01/29 10:37:30;;;;;;;31.98;27.60;;;410.20;1049.60;;;;;;5032214;28;20177;-59
2021/01/29 10:40:27;;;;;;;20.83;17.63;;;409.90;1100.80;;;;;;5032553;28;20021;-54
2021/01/29 10:42:59;;;;;;;23.95;21.27;;;409.60;1075.20;;;;;;5032551;28;20025;-55
2021/01/29 10:46:12;;;;;;;22.52;17.83;;;409.60;1075.20;;;;;;5032022;28;20033;-59
2021/01/29 10:48:51;;;;;;;28.63;24.08;;;384.70;1075.20;;;;;;5030140;28;20486;-54
2021/01/29 10:51:29;;;;;;;35.75;26.85;;;384.40;1100.80;;;;;;5029616;28;20529;-57
2021/01/29 10:54:00;;;;;;;33.35;29.13;;;384.60;1100.80;;;;;;5030252;28;20120;-56
2021/01/29 10:56:44;;;;;;;29.60;25.67;;;384.40;1100.80;;;;;;5030134;28;20392;-57
2021/01/29 10:59:53;;;;;;;31.75;23.80;;;384.60;1100.80;;;;;;5029607;28;20120;-55
2021/01/29 11:02:29;;;;;;;37.33;29.08;;;384.90;1075.20;;;;;;5015170;28;20113;-56
2021/01/29 11:05:06;;;;;;;67.00;47.63;;;384.50;1100.80;;;;;;5029991;28;20049;-53
2021/01/29 11:07:35;;;;;;;38.95;26.13;;;384.60;1100.80;;;;;;5029157;28;20566;-54
2021/01/29 11:10:15;;;;;;;75.47;54.20;;;384.60;1100.80;;;;;;5030485;28;20030;-59
2021/01/29 11:13:09;;;;;;;38.03;28.42;;;384.50;1126.40;;;;;;5030186;28;20064;-60
2021/01/29 11:15:46;;;;;;;107.80;70.43;;;384.80;1100.80;;;;;;5036132;28;20604;-58
2021/01/29 11:18:35;;;;;;;155.35;108.10;;;384.70;1075.20;;;;;;5037638;28;20069;-59
2021/01/29 11:21:15;;;;;;;112.05;66.50;;;409.60;1126.40;;;;;;5045457;28;20025;-61
2021/01/29 11:24:26;;;;;;;113.30;78.15;;;384.90;1075.20;;;;;;5048673;28;20467;-62
2021/01/29 11:27:31;;;;;;;53.40;39.22;;;409.60;1100.80;;;;;;5009922;28;20122;-61
2021/01/29 11:30:16;;;;;;;59.33;40.85;;;409.60;1126.40;;;;;;5010018;28;20504;-57
2021/01/29 11:32:51;;;;;;;79.07;52.70;;;409.60;1100.80;;;;;;5017709;28;20029;-60
2021/01/29 11:35:37;;;;;;;61.42;40.97;;;384.80;1075.20;;;;;;5023653;28;20041;-59
2021/01/29 11:38:11;;;;;;;50.53;39.75;;;384.80;1075.20;;;;;;5010209;28;20026;-59
2021/01/29 11:40:57;;;;;;;34.90;24.65;;;384.70;1100.80;;;;;;5009874;28;20038;-61
2021/01/29 11:43:54;;;;;;;80.43;47.90;;;384.50;1100.80;;;;;;5021614;28;20897;-53
2021/01/29 11:46:28;;;;;;;51.55;34.63;;;384.50;1100.80;;;;;;5029218;28;20025;-52
2021/01/29 11:49:01;;;;;;;26.70;20.00;;;384.40;1126.40;;;;;;5009617;28;20100;-58
2021/01/29 11:51:40;;;;;;;34.95;23.65;;;384.30;1100.80;;;;;;5011497;28;20055;-62
2021/01/29 11:54:15;;;;;;;23.80;15.23;;;384.10;1100.80;;;;;;5027627;28;20080;-55
2021/01/29 11:56:44;;;;;;;27.35;17.77;;;384.00;1152.00;;;;;;5023235;28;20064;-56
2021/01/29 11:59:20;;;;;;;22.63;17.10;;;384.00;1152.00;;;;;;5009636;28;20030;-59
2021/01/29 12:01:55;;;;;;;7.50;5.78;;;384.00;1152.00;;;;;;5020428;28;20400;-60
2021/01/29 12:04:25;;;;;;;18.88;12.63;;;384.00;1100.80;;;;;;5039488;28;20091;-58
2021/01/29 12:07:03;;;;;;;8.43;5.80;;;384.10;1152.00;;;;;;5050789;28;20032;-58
2021/01/29 12:09:40;;;;;;;13.52;9.95;;;384.00;1152.00;;;;;;5051139;28;20041;-59
2021/01/29 12:12:19;;;;;;;39.25;26.95;;;384.00;1152.00;;;;;;5051057;28;20037;-61
2021/01/29 12:15:26;;;;;;;14.30;10.20;;;384.00;1152.00;;;;;;5050806;28;20025;-61
2021/01/29 12:17:55;;;;;;;40.38;29.88;;;384.10;1152.00;;;;;;5048000;28;20123;-61
2021/01/29 12:20:29;;;;;;;32.55;28.90;;;384.10;1152.00;;;;;;5048522;28;20108;-61
2021/01/29 12:23:24;;;;;;;23.17;18.38;;;384.00;1126.40;;;;;;5048716;28;20067;-61
2021/01/29 12:26:21;;;;;;;29.92;18.70;;;384.00;1126.40;;;;;;5048752;28;20510;-62
2021/01/29 12:29:11;;;;;;;86.65;70.68;;;384.10;1152.00;;;;;;4969632;28;20056;-58
2021/01/29 12:32:02;;;;;;;10.93;7.78;;;384.40;1100.80;;;;;;4969181;28;20024;-54
2021/01/29 12:34:27;;;;;;;29.83;21.90;;;384.20;1075.20;;;;;;4967614;28;20441;-60
2021/01/29 12:37:13;;;;;;;16.70;12.82;;;384.40;1100.80;;;;;;4969228;28;20022;-56
2021/01/29 12:39:56;;;;;;;12.93;9.15;;;384.50;1100.80;;;;;;4966702;28;20109;-62
2021/01/29 12:42:43;;;;;;;34.83;23.30;;;384.50;1100.80;;;;;;4969776;28;20033;-54
2021/01/29 12:45:29;;;;;;;100.55;61.78;;;384.50;1075.20;;;;;;4969721;28;20038;-60
2021/01/29 12:48:04;;;;;;;25.30;18.80;;;384.60;1100.80;;;;;;4969414;28;20053;-58
2021/01/29 12:50:38;;;;;;;12.95;11.18;;;384.40;1100.80;;;;;;4969686;28;20421;-60
2021/01/29 12:53:19;;;;;;;12.70;9.30;;;384.40;1100.80;;;;;;4969470;28;20034;-58